Disclaimer

Please do not use the information listed here in-flight or in-navigation, as they are not provided to us by the airports but are provided by volunteers, so they might be outdated.

Search


Regions


Airport information page

Radio informations:
Brisbane Center - 120.3 MHz
Common traffic adv. frequency (CTAF) - 124.2 MHz

Airport informations:
Latitude: 28° 49' 49.00" S
Longitude: 153° 15' 36.00" E
Elevation: 35 feet - 11 meters
Operating hours: N/A
Operating agency: Civil government, landing fees and diplomatic clearance may be required
Timezone: UTC+10(+11DT)
Fuel: Jet A1, without icing nhibitor.

100/130 MIL Spec, low lead, aviation gasoline (BLUE)

Runway information:
15/33 - 5404 x 98 feet< - >1647 x 30 meters

Recent METARs:
YLIS 141900Z AUTO 36004KT 9999 // BKN038 16/15 Q1017
YLIS 142000Z AUTO 36005KT 9999 // NCD 19/17 Q1017
YLIS 142000Z AUTO 36005KT 9999 // NCD 19/17 Q1017

Airport on the map: